WetterOnline ( https://www.wetteronline.de )

Wetter aktuell Lechfeld

Aktuelles Wetter: Lechfeld (554m)

6-stündlich | Neueste Meldungen
Ortszeit Temperatur Wetter
Di, 06.12. 7:00 -1.3° C fast wolkenlos
Di, 06.12. 1:00 0.9° C bewölkt
Mo, 05.12. 19:00 1.3° C bewölkt
Mo, 05.12. 13:00 3.4° C leichter Regen
Mo, 05.12. 7:00 1.4° C bewölkt
Mo, 05.12. 1:00 0.2° C bedeckt
So, 04.12. 19:00 0.4° C bedeckt
So, 04.12. 13:00 0.4° C Nebel
Ortszeit Temperatur Wetter
Di, 06.12. 12:00 1.3° C bewölkt
Di, 06.12. 11:00 0.9° C bewölkt
Di, 06.12. 10:00 0.5° C bewölkt
Di, 06.12. 9:00 -0.1° C wolkig
Di, 06.12. 8:00 -0.9° C leicht bewölkt
Di, 06.12. 7:00 -1.3° C fast wolkenlos
Di, 06.12. 6:00 0.1° C leicht bewölkt
Ortszeit Relative Feuchte Sichtweite
Di, 06.12. 7:00 99% 6 km
Di, 06.12. 1:00 95% 20 km
Mo, 05.12. 19:00 95% 15 km
Mo, 05.12. 13:00 85% 20 km
Mo, 05.12. 7:00 95% 8 km
Mo, 05.12. 1:00 99% 4.0 km
So, 04.12. 19:00 99% 6 km
So, 04.12. 13:00 99% 0.6 km
Ortszeit Relative Feuchte Sichtweite
Di, 06.12. 12:00 86% 30 km
Di, 06.12. 11:00 88% 30 km
Di, 06.12. 10:00 90% 30 km
Di, 06.12. 9:00 92% 10 km
Di, 06.12. 8:00 95% 10 km
Di, 06.12. 7:00 99% 6 km
Di, 06.12. 6:00 95% 8 km
Ortszeit Niederschlagsmenge Niederschlagsart
Di, 06.12. 7:00 0.0 l/m2 in 12 Std. -
Di, 06.12. 1:00 keine Meldung -
Mo, 05.12. 19:00 0.7 l/m2 in 12 Std. Regen
Mo, 05.12. 13:00 keine Meldung -
Mo, 05.12. 7:00 0.0 l/m2 in 12 Std. -
Mo, 05.12. 1:00 keine Meldung -
So, 04.12. 19:00 0.0 l/m2 in 12 Std. Nebel
So, 04.12. 13:00 keine Meldung -
Ortszeit Niederschlagsmenge Niederschlagsart
Di, 06.12. 12:00 keine Meldung -
Di, 06.12. 11:00 keine Meldung -
Di, 06.12. 10:00 keine Meldung -
Di, 06.12. 9:00 keine Meldung -
Di, 06.12. 8:00 keine Meldung -
Di, 06.12. 7:00 keine Meldung -
Di, 06.12. 6:00 keine Meldung -
Ortszeit Stärke Spitze Richtung
km/h Bft. km/h Grad Sektor
Di, 06.12. 7:00 11 2 - 190° S
Di, 06.12. 1:00 7 2 - 210° SW
Mo, 05.12. 19:00 7 2 - 180° S
Mo, 05.12. 13:00 11 2 - 230° SW
Mo, 05.12. 7:00 7 2 - 220° SW
Mo, 05.12. 1:00 11 2 - 240° SW
So, 04.12. 19:00 7 2 - 230° SW
So, 04.12. 13:00 4 1 - 20° N
Ortszeit Stärke Spitze Richtung
km/h Bft. km/h Grad Sektor
Di, 06.12. 12:00 7 2 - 180° S
Di, 06.12. 11:00 7 2 - 180° S
Di, 06.12. 10:00 11 2 - 190° S
Di, 06.12. 9:00 7 2 - 200° S
Di, 06.12. 8:00 11 2 - 200° S
Di, 06.12. 7:00 11 2 - 190° S
Di, 06.12. 6:00 11 2 - 210° SW
Ortszeit Untergrenze Bedeckung Gattung
total tief tief mittel hoch
Di, 06.12. 7:00 750 m 1/8 1/8 Sc - -
Di, 06.12. 1:00 1350 m 7/8 7/8 Sc - -
Mo, 05.12. 19:00 1200 m 7/8 7/8 Sc - -
Mo, 05.12. 13:00 360 m 7/8 7/8 Cu - -
Mo, 05.12. 7:00 90 m 7/8 7/8 Sc - -
Mo, 05.12. 1:00 30 m 8/8 8/8 St - -
So, 04.12. 19:00 30 m 8/8 8/8 St - -
So, 04.12. 13:00 - 8/8 - - - -
Ortszeit Bedeckungsgrad in Achtel und Wolkenuntergrenze
Di, 06.12. 12:00 7(1350m)
Di, 06.12. 11:00 7(1350m)
Di, 06.12. 10:00 7(1500m)
Di, 06.12. 9:00 1(1050m) 5(1500m)
Di, 06.12. 8:00 3(1050m)
Di, 06.12. 7:00 1(750m)
Di, 06.12. 6:00 3(900m)
Ortszeit Luftdruck NN (hPa) Tendenz (hPa in 3 Std.)
Di, 06.12. 7:00 1021 - 0,5
Di, 06.12. 1:00 1021 - 0,1
Mo, 05.12. 19:00 1021 + 0,4
Mo, 05.12. 13:00 1020 + 0,4
Mo, 05.12. 7:00 1019 + 0,5
Mo, 05.12. 1:00 1016 + 1,0
So, 04.12. 19:00 1014 + 0,5
So, 04.12. 13:00 1013 - 1,6
Ortszeit Luftdruck NN (hPa) Tendenz (hPa in 3 Std.)
Di, 06.12. 12:00 1019 - 0,6
Di, 06.12. 11:00 1020 - 0,1
Di, 06.12. 10:00 1020 - 0,2
Di, 06.12. 9:00 1020 0,0
Di, 06.12. 8:00 1020 - 0,4
Di, 06.12. 7:00 1021 - 0,5
Di, 06.12. 6:00 1020 - 0,9
Ortszeit Schneehöhe (cm)
Di, 06.12. 7:00 0
Di, 06.12. 1:00 -
Mo, 05.12. 19:00 0
Mo, 05.12. 13:00 -
Mo, 05.12. 7:00 0
Mo, 05.12. 1:00 -
So, 04.12. 19:00 0
So, 04.12. 13:00 -
Ortszeit Schneehöhe (cm)
Di, 06.12. 12:00 -
Di, 06.12. 11:00 -
Di, 06.12. 10:00 -
Di, 06.12. 9:00 -
Di, 06.12. 8:00 -
Di, 06.12. 7:00 0
Di, 06.12. 6:00 -
Link zu dieser Seite / Seite empfehlen

Das Wetter in ...